Terminal Aerodrome Forecast
Issued by NWS Charleston, WV

Home | Current Version | Previous Version | Text Only | Print | Product List | Glossary On
Versions: 1 2 3 4 5 6 7 8 9 10 11 12 13 14 15 16 17 18 19 20 21 22 23 24 25 26 27
000
FTUS41 KRLX 191900 AAB
TAFBKW
TAF AMD
KBKW 191939Z 1920/2018 13012G19KT P6SM VCSH SCT035
      TEMPO 1920/1921 BKN030
     FM192100 13010G20KT P6SM BKN025
     FM200300 14012G20KT P6SM BKN015
     FM200900 15007G15KT 6SM -DZ BR BKN008
     FM201200 18007G15KT P6SM BKN012
     FM201500 18010KT P6SM SCT040=

USA.gov is the U.S. government's official web portal to all federal, state and local government web resources and services.